Terminal Aerodrome Forecast
Issued by NWS

Home | Current Version | Previous Version | Text Only | Print | Product List | Glossary On
Versions: 1 2 3 4 5 6 7 8 9 10 11 12 13 14 15 16
000
FTUS43 KDTX 242333
TAFMBS
TAF
KMBS 242333Z 2500/2524 32010KT 6SM SHRASN OVC007
     FM250200 27020G30KT 3SM -SN OVC007
      TEMPO 2502/2506 1SM -SN OVC004
     FM250700 25020G30KT 3SM -SHSN OVC015
     FM251000 25020G30KT P6SM OVC015
     FM251600 23015G25KT P6SM BKN025=

USA.gov is the U.S. government's official web portal to all federal, state and local government web resources and services.